sensor_id;sensor_type;location;lat;lon;timestamp;P1;durP1;ratioP1;P2;durP2;ratioP2
70008;SDS011;59542;37.950;-122.338;2023-05-23T00:00:59;36.95;;;9.77;;
70008;SDS011;59542;37.950;-122.338;2023-05-23T00:03:25;29.15;;;8.90;;
70008;SDS011;59542;37.950;-122.338;2023-05-23T00:05:53;32.15;;;8.48;;
70008;SDS011;59542;37.950;-122.338;2023-05-23T00:08:20;34.00;;;9.45;;
70008;SDS011;59542;37.950;-122.338;2023-05-23T00:10:47;32.15;;;8.90;;
70008;SDS011;59542;37.950;-122.338;2023-05-23T00:13:13;33.38;;;9.70;;
70008;SDS011;59542;37.950;-122.338;2023-05-23T00:15:40;37.65;;;10.70;;
70008;SDS011;59542;37.950;-122.338;2023-05-23T00:18:07;37.17;;;10.13;;
70008;SDS011;59542;37.950;-122.338;2023-05-23T00:20:38;29.48;;;9.60;;
70008;SDS011;59542;37.950;-122.338;2023-05-23T00:23:06;35.13;;;8.98;;
70008;SDS011;59542;37.950;-122.338;2023-05-23T00:25:38;32.28;;;9.82;;
70008;SDS011;59542;37.950;-122.338;2023-05-23T00:28:05;37.55;;;10.52;;
70008;SDS011;59542;37.950;-122.338;2023-05-23T00:30:32;37.78;;;10.85;;
70008;SDS011;59542;37.950;-122.338;2023-05-23T00:32:58;37.25;;;9.35;;
70008;SDS011;59542;37.950;-122.338;2023-05-23T00:35:25;38.75;;;10.25;;
70008;SDS011;59542;37.950;-122.338;2023-05-23T00:37:52;31.80;;;10.18;;
70008;SDS011;59542;37.950;-122.338;2023-05-23T00:40:20;36.33;;;9.93;;
70008;SDS011;59542;37.950;-122.338;2023-05-23T00:42:46;35.25;;;9.70;;
70008;SDS011;59542;37.950;-122.338;2023-05-23T00:45:13;25.77;;;8.48;;
70008;SDS011;59542;37.950;-122.338;2023-05-23T00:47:41;35.50;;;9.55;;
70008;SDS011;59542;37.950;-122.338;2023-05-23T00:50:08;36.80;;;9.20;;
70008;SDS011;59542;37.950;-122.338;2023-05-23T00:52:41;30.17;;;9.23;;
70008;SDS011;59542;37.950;-122.338;2023-05-23T00:55:09;35.08;;;10.38;;
70008;SDS011;59542;37.950;-122.338;2023-05-23T00:57:36;41.80;;;10.27;;
70008;SDS011;59542;37.950;-122.338;2023-05-23T01:00:09;47.17;;;10.80;;
70008;SDS011;59542;37.950;-122.338;2023-05-23T01:02:43;40.22;;;9.75;;
70008;SDS011;59542;37.950;-122.338;2023-05-23T01:05:11;33.23;;;9.80;;
70008;SDS011;59542;37.950;-122.338;2023-05-23T01:07:44;37.08;;;9.93;;
70008;SDS011;59542;37.950;-122.338;2023-05-23T01:10:15;34.63;;;9.82;;
70008;SDS011;59542;37.950;-122.338;2023-05-23T01:15:19;41.05;;;10.23;;
70008;SDS011;59542;37.950;-122.338;2023-05-23T01:26:02;36.63;;;10.67;;
70008;SDS011;59542;37.950;-122.338;2023-05-23T01:28:51;36.97;;;9.73;;
70008;SDS011;59542;37.950;-122.338;2023-05-23T01:31:23;42.78;;;11.23;;
70008;SDS011;59542;37.950;-122.338;2023-05-23T01:33:52;40.75;;;9.60;;
70008;SDS011;59542;37.950;-122.338;2023-05-23T01:36:19;43.42;;;9.90;;
70008;SDS011;59542;37.950;-122.338;2023-05-23T01:38:45;49.20;;;10.20;;
70008;SDS011;59542;37.950;-122.338;2023-05-23T01:41:11;38.78;;;9.95;;
70008;SDS011;59542;37.950;-122.338;2023-05-23T01:43:37;43.70;;;9.63;;
70008;SDS011;59542;37.950;-122.338;2023-05-23T01:46:04;43.55;;;10.30;;
70008;SDS011;59542;37.950;-122.338;2023-05-23T01:48:31;44.03;;;11.25;;
70008;SDS011;59542;37.950;-122.338;2023-05-23T01:50:59;40.05;;;10.77;;
70008;SDS011;59542;37.950;-122.338;2023-05-23T01:53:26;44.28;;;10.10;;
70008;SDS011;59542;37.950;-122.338;2023-05-23T01:55:55;35.65;;;10.10;;
70008;SDS011;59542;37.950;-122.338;2023-05-23T01:58:21;42.28;;;10.68;;
70008;SDS011;59542;37.950;-122.338;2023-05-23T02:00:48;64.32;;;11.60;;
70008;SDS011;59542;37.950;-122.338;2023-05-23T02:03:14;35.13;;;10.30;;
70008;SDS011;59542;37.950;-122.338;2023-05-23T02:05:41;46.13;;;11.57;;
70008;SDS011;59542;37.950;-122.338;2023-05-23T02:08:08;39.95;;;11.00;;
70008;SDS011;59542;37.950;-122.338;2023-05-23T02:10:34;45.72;;;10.85;;
70008;SDS011;59542;37.950;-122.338;2023-05-23T02:13:00;41.58;;;10.30;;
70008;SDS011;59542;37.950;-122.338;2023-05-23T02:15:26;42.85;;;10.63;;
70008;SDS011;59542;37.950;-122.338;2023-05-23T02:17:53;33.05;;;10.07;;
70008;SDS011;59542;37.950;-122.338;2023-05-23T02:20:19;51.97;;;11.50;;
70008;SDS011;59542;37.950;-122.338;2023-05-23T02:22:45;43.47;;;11.32;;
70008;SDS011;59542;37.950;-122.338;2023-05-23T02:25:11;49.03;;;11.80;;
70008;SDS011;59542;37.950;-122.338;2023-05-23T02:27:38;43.67;;;10.05;;
70008;SDS011;59542;37.950;-122.338;2023-05-23T02:30:04;42.15;;;11.20;;
70008;SDS011;59542;37.950;-122.338;2023-05-23T02:32:31;46.20;;;11.98;;
70008;SDS011;59542;37.950;-122.338;2023-05-23T02:34:57;42.30;;;10.82;;
70008;SDS011;59542;37.950;-122.338;2023-05-23T02:37:23;58.13;;;12.00;;
70008;SDS011;59542;37.950;-122.338;2023-05-23T02:39:50;43.33;;;11.50;;
70008;SDS011;59542;37.950;-122.338;2023-05-23T02:42:16;40.65;;;11.00;;
70008;SDS011;59542;37.950;-122.338;2023-05-23T02:44:42;39.97;;;11.30;;
70008;SDS011;59542;37.950;-122.338;2023-05-23T02:47:09;44.42;;;12.75;;
70008;SDS011;59542;37.950;-122.338;2023-05-23T02:49:35;52.08;;;14.02;;
70008;SDS011;59542;37.950;-122.338;2023-05-23T02:52:01;51.55;;;12.25;;
70008;SDS011;59542;37.950;-122.338;2023-05-23T02:54:27;47.47;;;13.10;;
70008;SDS011;59542;37.950;-122.338;2023-05-23T02:56:54;47.65;;;12.63;;
70008;SDS011;59542;37.950;-122.338;2023-05-23T02:59:21;54.83;;;11.35;;
70008;SDS011;59542;37.950;-122.338;2023-05-23T03:01:47;52.83;;;12.90;;
70008;SDS011;59542;37.950;-122.338;2023-05-23T03:04:13;50.03;;;12.27;;
70008;SDS011;59542;37.950;-122.338;2023-05-23T03:06:40;47.47;;;13.40;;
70008;SDS011;59542;37.950;-122.338;2023-05-23T03:09:09;51.25;;;12.52;;
70008;SDS011;59542;37.950;-122.338;2023-05-23T03:11:35;52.05;;;12.35;;
70008;SDS011;59542;37.950;-122.338;2023-05-23T03:14:02;62.28;;;14.75;;
70008;SDS011;59542;37.950;-122.338;2023-05-23T03:16:28;54.60;;;13.95;;
70008;SDS011;59542;37.950;-122.338;2023-05-23T03:18:54;57.00;;;12.30;;
70008;SDS011;59542;37.950;-122.338;2023-05-23T03:21:20;51.88;;;13.23;;
70008;SDS011;59542;37.950;-122.338;2023-05-23T03:23:47;56.83;;;13.80;;
70008;SDS011;59542;37.950;-122.338;2023-05-23T03:26:13;65.10;;;14.13;;
70008;SDS011;59542;37.950;-122.338;2023-05-23T03:28:39;63.15;;;14.55;;
70008;SDS011;59542;37.950;-122.338;2023-05-23T03:31:06;52.42;;;14.70;;
70008;SDS011;59542;37.950;-122.338;2023-05-23T03:33:32;50.63;;;13.95;;
70008;SDS011;59542;37.950;-122.338;2023-05-23T03:35:58;57.92;;;16.15;;
70008;SDS011;59542;37.950;-122.338;2023-05-23T03:38:25;59.85;;;15.15;;
70008;SDS011;59542;37.950;-122.338;2023-05-23T03:40:52;62.38;;;15.65;;
70008;SDS011;59542;37.950;-122.338;2023-05-23T03:43:18;66.70;;;15.55;;
70008;SDS011;59542;37.950;-122.338;2023-05-23T03:45:44;59.75;;;15.75;;
70008;SDS011;59542;37.950;-122.338;2023-05-23T03:48:11;56.97;;;14.77;;
70008;SDS011;59542;37.950;-122.338;2023-05-23T03:50:38;49.30;;;13.43;;
70008;SDS011;59542;37.950;-122.338;2023-05-23T03:53:04;66.93;;;14.70;;
70008;SDS011;59542;37.950;-122.338;2023-05-23T03:55:31;56.40;;;14.35;;
70008;SDS011;59542;37.950;-122.338;2023-05-23T03:57:57;64.82;;;16.02;;
70008;SDS011;59542;37.950;-122.338;2023-05-23T04:00:23;59.22;;;15.00;;
70008;SDS011;59542;37.950;-122.338;2023-05-23T04:02:50;68.30;;;16.48;;
70008;SDS011;59542;37.950;-122.338;2023-05-23T04:05:16;60.67;;;14.98;;
70008;SDS011;59542;37.950;-122.338;2023-05-23T04:07:43;54.45;;;13.98;;
70008;SDS011;59542;37.950;-122.338;2023-05-23T04:10:10;64.10;;;16.10;;
70008;SDS011;59542;37.950;-122.338;2023-05-23T04:12:36;66.40;;;15.60;;
70008;SDS011;59542;37.950;-122.338;2023-05-23T04:15:06;59.03;;;16.55;;
70008;SDS011;59542;37.950;-122.338;2023-05-23T04:17:33;55.33;;;14.90;;
70008;SDS011;59542;37.950;-122.338;2023-05-23T04:19:59;66.47;;;14.38;;
70008;SDS011;59542;37.950;-122.338;2023-05-23T04:22:25;62.35;;;14.90;;
70008;SDS011;59542;37.950;-122.338;2023-05-23T04:24:52;72.05;;;16.88;;
70008;SDS011;59542;37.950;-122.338;2023-05-23T04:27:18;62.67;;;15.98;;
70008;SDS011;59542;37.950;-122.338;2023-05-23T04:29:46;59.08;;;15.20;;
70008;SDS011;59542;37.950;-122.338;2023-05-23T04:32:12;64.53;;;15.20;;
70008;SDS011;59542;37.950;-122.338;2023-05-23T04:34:41;57.50;;;14.90;;
70008;SDS011;59542;37.950;-122.338;2023-05-23T04:37:08;58.78;;;15.45;;
70008;SDS011;59542;37.950;-122.338;2023-05-23T04:39:35;59.95;;;16.30;;
70008;SDS011;59542;37.950;-122.338;2023-05-23T04:42:02;73.15;;;16.48;;
70008;SDS011;59542;37.950;-122.338;2023-05-23T04:44:29;69.35;;;16.70;;
70008;SDS011;59542;37.950;-122.338;2023-05-23T04:46:56;65.88;;;16.65;;
70008;SDS011;59542;37.950;-122.338;2023-05-23T04:49:22;56.35;;;14.60;;
70008;SDS011;59542;37.950;-122.338;2023-05-23T04:51:48;70.25;;;15.73;;
70008;SDS011;59542;37.950;-122.338;2023-05-23T04:54:15;81.28;;;16.45;;
70008;SDS011;59542;37.950;-122.338;2023-05-23T04:56:41;60.67;;;15.43;;
70008;SDS011;59542;37.950;-122.338;2023-05-23T04:59:07;57.53;;;15.80;;
70008;SDS011;59542;37.950;-122.338;2023-05-23T05:01:35;66.88;;;15.88;;
70008;SDS011;59542;37.950;-122.338;2023-05-23T05:04:05;77.32;;;17.33;;
70008;SDS011;59542;37.950;-122.338;2023-05-23T05:06:31;69.70;;;17.17;;
70008;SDS011;59542;37.950;-122.338;2023-05-23T05:08:58;66.20;;;17.05;;
70008;SDS011;59542;37.950;-122.338;2023-05-23T05:11:25;62.10;;;15.20;;
70008;SDS011;59542;37.950;-122.338;2023-05-23T05:13:51;62.03;;;16.77;;
70008;SDS011;59542;37.950;-122.338;2023-05-23T05:16:17;69.07;;;15.98;;
70008;SDS011;59542;37.950;-122.338;2023-05-23T05:18:44;71.15;;;17.92;;
70008;SDS011;59542;37.950;-122.338;2023-05-23T05:21:10;71.90;;;17.50;;
70008;SDS011;59542;37.950;-122.338;2023-05-23T05:23:36;61.47;;;16.38;;
70008;SDS011;59542;37.950;-122.338;2023-05-23T05:26:03;63.85;;;16.90;;
70008;SDS011;59542;37.950;-122.338;2023-05-23T05:28:29;66.88;;;16.98;;
70008;SDS011;59542;37.950;-122.338;2023-05-23T05:30:56;71.88;;;18.02;;
70008;SDS011;59542;37.950;-122.338;2023-05-23T05:33:22;81.75;;;17.10;;
70008;SDS011;59542;37.950;-122.338;2023-05-23T05:35:49;69.10;;;17.45;;
70008;SDS011;59542;37.950;-122.338;2023-05-23T05:38:18;68.55;;;16.85;;
70008;SDS011;59542;37.950;-122.338;2023-05-23T05:40:44;86.78;;;19.02;;
70008;SDS011;59542;37.950;-122.338;2023-05-23T05:43:11;58.78;;;15.68;;
70008;SDS011;59542;37.950;-122.338;2023-05-23T05:45:37;73.93;;;17.58;;
70008;SDS011;59542;37.950;-122.338;2023-05-23T05:48:04;65.28;;;16.30;;
70008;SDS011;59542;37.950;-122.338;2023-05-23T05:50:30;63.95;;;16.75;;
70008;SDS011;59542;37.950;-122.338;2023-05-23T05:52:56;70.68;;;16.20;;
70008;SDS011;59542;37.950;-122.338;2023-05-23T05:55:22;71.20;;;17.25;;
70008;SDS011;59542;37.950;-122.338;2023-05-23T05:57:49;74.55;;;16.77;;
70008;SDS011;59542;37.950;-122.338;2023-05-23T06:00:15;68.38;;;17.75;;
70008;SDS011;59542;37.950;-122.338;2023-05-23T06:02:43;70.95;;;16.65;;
70008;SDS011;59542;37.950;-122.338;2023-05-23T06:05:15;64.60;;;16.25;;
70008;SDS011;59542;37.950;-122.338;2023-05-23T06:07:42;73.00;;;17.77;;
70008;SDS011;59542;37.950;-122.338;2023-05-23T06:10:08;71.95;;;17.42;;
70008;SDS011;59542;37.950;-122.338;2023-05-23T06:12:38;79.63;;;17.70;;
70008;SDS011;59542;37.950;-122.338;2023-05-23T06:15:05;68.30;;;16.88;;
70008;SDS011;59542;37.950;-122.338;2023-05-23T06:17:32;61.75;;;17.55;;
70008;SDS011;59542;37.950;-122.338;2023-05-23T06:19:58;75.18;;;17.70;;
70008;SDS011;59542;37.950;-122.338;2023-05-23T06:22:24;70.97;;;16.85;;
70008;SDS011;59542;37.950;-122.338;2023-05-23T06:24:51;85.20;;;18.88;;
70008;SDS011;59542;37.950;-122.338;2023-05-23T06:27:17;67.03;;;16.55;;
70008;SDS011;59542;37.950;-122.338;2023-05-23T06:29:43;69.95;;;16.88;;
70008;SDS011;59542;37.950;-122.338;2023-05-23T06:32:09;75.97;;;16.63;;
70008;SDS011;59542;37.950;-122.338;2023-05-23T06:34:36;69.47;;;18.42;;
70008;SDS011;59542;37.950;-122.338;2023-05-23T06:37:02;84.68;;;16.73;;
70008;SDS011;59542;37.950;-122.338;2023-05-23T06:39:28;83.28;;;18.80;;
70008;SDS011;59542;37.950;-122.338;2023-05-23T06:41:55;79.57;;;18.63;;
70008;SDS011;59542;37.950;-122.338;2023-05-23T06:44:21;77.68;;;17.65;;
70008;SDS011;59542;37.950;-122.338;2023-05-23T06:46:47;78.72;;;18.40;;
70008;SDS011;59542;37.950;-122.338;2023-05-23T06:49:14;75.05;;;16.92;;
70008;SDS011;59542;37.950;-122.338;2023-05-23T06:51:40;71.68;;;17.45;;
70008;SDS011;59542;37.950;-122.338;2023-05-23T06:54:06;72.25;;;17.58;;
70008;SDS011;59542;37.950;-122.338;2023-05-23T06:56:32;76.75;;;17.38;;
70008;SDS011;59542;37.950;-122.338;2023-05-23T06:58:59;66.32;;;17.20;;
70008;SDS011;59542;37.950;-122.338;2023-05-23T07:01:25;71.90;;;17.60;;
70008;SDS011;59542;37.950;-122.338;2023-05-23T07:03:51;72.30;;;19.35;;
70008;SDS011;59542;37.950;-122.338;2023-05-23T07:06:17;79.88;;;19.67;;
70008;SDS011;59542;37.950;-122.338;2023-05-23T07:08:44;74.65;;;18.67;;
70008;SDS011;59542;37.950;-122.338;2023-05-23T07:11:11;73.50;;;18.13;;
70008;SDS011;59542;37.950;-122.338;2023-05-23T07:13:37;75.03;;;18.02;;
70008;SDS011;59542;37.950;-122.338;2023-05-23T07:16:03;74.97;;;17.23;;
70008;SDS011;59542;37.950;-122.338;2023-05-23T07:18:30;83.05;;;18.42;;
70008;SDS011;59542;37.950;-122.338;2023-05-23T07:20:56;80.97;;;19.00;;
70008;SDS011;59542;37.950;-122.338;2023-05-23T07:23:22;75.05;;;18.73;;
70008;SDS011;59542;37.950;-122.338;2023-05-23T07:25:50;80.90;;;18.02;;
70008;SDS011;59542;37.950;-122.338;2023-05-23T07:28:16;72.55;;;18.63;;
70008;SDS011;59542;37.950;-122.338;2023-05-23T07:30:42;75.00;;;18.40;;
70008;SDS011;59542;37.950;-122.338;2023-05-23T07:33:08;69.63;;;16.17;;
70008;SDS011;59542;37.950;-122.338;2023-05-23T07:35:35;65.40;;;18.55;;
70008;SDS011;59542;37.950;-122.338;2023-05-23T07:38:01;78.55;;;17.92;;
70008;SDS011;59542;37.950;-122.338;2023-05-23T07:40:27;66.30;;;16.75;;
70008;SDS011;59542;37.950;-122.338;2023-05-23T07:42:53;63.03;;;17.10;;
70008;SDS011;59542;37.950;-122.338;2023-05-23T07:45:20;66.32;;;18.10;;
70008;SDS011;59542;37.950;-122.338;2023-05-23T07:47:46;75.97;;;18.30;;
70008;SDS011;59542;37.950;-122.338;2023-05-23T07:50:13;78.90;;;18.10;;
70008;SDS011;59542;37.950;-122.338;2023-05-23T07:52:40;69.38;;;17.77;;
70008;SDS011;59542;37.950;-122.338;2023-05-23T07:55:06;83.22;;;19.60;;
70008;SDS011;59542;37.950;-122.338;2023-05-23T07:57:33;83.65;;;18.17;;
70008;SDS011;59542;37.950;-122.338;2023-05-23T07:59:59;75.07;;;18.17;;
70008;SDS011;59542;37.950;-122.338;2023-05-23T08:02:25;76.18;;;19.05;;
70008;SDS011;59542;37.950;-122.338;2023-05-23T08:04:52;74.88;;;19.25;;
70008;SDS011;59542;37.950;-122.338;2023-05-23T08:07:18;74.30;;;16.42;;
70008;SDS011;59542;37.950;-122.338;2023-05-23T08:09:46;70.38;;;17.40;;
70008;SDS011;59542;37.950;-122.338;2023-05-23T08:12:12;77.68;;;17.67;;
70008;SDS011;59542;37.950;-122.338;2023-05-23T08:14:38;56.72;;;16.13;;
70008;SDS011;59542;37.950;-122.338;2023-05-23T08:17:05;72.15;;;17.02;;
70008;SDS011;59542;37.950;-122.338;2023-05-23T08:19:31;62.13;;;17.25;;
70008;SDS011;59542;37.950;-122.338;2023-05-23T08:21:57;76.63;;;18.95;;
70008;SDS011;59542;37.950;-122.338;2023-05-23T08:24:23;76.78;;;18.20;;
70008;SDS011;59542;37.950;-122.338;2023-05-23T08:26:50;69.63;;;18.27;;
70008;SDS011;59542;37.950;-122.338;2023-05-23T08:29:16;58.35;;;16.05;;
70008;SDS011;59542;37.950;-122.338;2023-05-23T08:31:42;69.30;;;17.85;;
70008;SDS011;59542;37.950;-122.338;2023-05-23T08:34:09;61.28;;;16.05;;
70008;SDS011;59542;37.950;-122.338;2023-05-23T08:36:35;77.55;;;18.52;;
70008;SDS011;59542;37.950;-122.338;2023-05-23T08:39:04;59.80;;;16.70;;
70008;SDS011;59542;37.950;-122.338;2023-05-23T08:41:30;62.03;;;16.20;;
70008;SDS011;59542;37.950;-122.338;2023-05-23T08:43:56;61.67;;;17.13;;
70008;SDS011;59542;37.950;-122.338;2023-05-23T08:46:23;65.82;;;17.15;;
70008;SDS011;59542;37.950;-122.338;2023-05-23T08:48:50;60.47;;;15.80;;
70008;SDS011;59542;37.950;-122.338;2023-05-23T08:51:20;73.03;;;17.55;;
70008;SDS011;59542;37.950;-122.338;2023-05-23T08:53:47;62.17;;;16.15;;
70008;SDS011;59542;37.950;-122.338;2023-05-23T08:56:15;71.07;;;17.60;;
70008;SDS011;59542;37.950;-122.338;2023-05-23T08:58:41;66.28;;;17.10;;
70008;SDS011;59542;37.950;-122.338;2023-05-23T09:01:08;70.10;;;16.55;;
70008;SDS011;59542;37.950;-122.338;2023-05-23T09:03:36;68.05;;;16.27;;
70008;SDS011;59542;37.950;-122.338;2023-05-23T09:06:05;64.53;;;15.80;;
70008;SDS011;59542;37.950;-122.338;2023-05-23T09:08:34;73.97;;;17.02;;
70008;SDS011;59542;37.950;-122.338;2023-05-23T09:11:02;66.47;;;17.17;;
70008;SDS011;59542;37.950;-122.338;2023-05-23T09:13:30;68.97;;;16.33;;
70008;SDS011;59542;37.950;-122.338;2023-05-23T09:18:25;72.88;;;16.88;;
70008;SDS011;59542;37.950;-122.338;2023-05-23T09:20:51;73.60;;;16.30;;
70008;SDS011;59542;37.950;-122.338;2023-05-23T09:23:18;65.95;;;17.08;;
70008;SDS011;59542;37.950;-122.338;2023-05-23T09:25:45;54.88;;;15.80;;
70008;SDS011;59542;37.950;-122.338;2023-05-23T09:28:12;57.97;;;15.35;;
70008;SDS011;59542;37.950;-122.338;2023-05-23T09:30:38;69.05;;;15.75;;
70008;SDS011;59542;37.950;-122.338;2023-05-23T09:33:05;69.68;;;16.40;;
70008;SDS011;59542;37.950;-122.338;2023-05-23T09:35:31;63.50;;;16.35;;
70008;SDS011;59542;37.950;-122.338;2023-05-23T09:37:57;64.25;;;15.35;;
70008;SDS011;59542;37.950;-122.338;2023-05-23T09:40:28;59.85;;;16.23;;
70008;SDS011;59542;37.950;-122.338;2023-05-23T09:43:00;65.13;;;17.23;;
70008;SDS011;59542;37.950;-122.338;2023-05-23T09:45:31;69.30;;;17.45;;
70008;SDS011;59542;37.950;-122.338;2023-05-23T09:47:58;73.20;;;16.95;;
70008;SDS011;59542;37.950;-122.338;2023-05-23T09:50:29;70.75;;;17.13;;
70008;SDS011;59542;37.950;-122.338;2023-05-23T09:53:00;66.77;;;16.73;;
70008;SDS011;59542;37.950;-122.338;2023-05-23T09:55:26;61.35;;;16.38;;
70008;SDS011;59542;37.950;-122.338;2023-05-23T09:57:53;62.72;;;15.95;;
70008;SDS011;59542;37.950;-122.338;2023-05-23T10:00:22;66.97;;;17.25;;
70008;SDS011;59542;37.950;-122.338;2023-05-23T10:03:11;58.60;;;16.33;;
70008;SDS011;59542;37.950;-122.338;2023-05-23T10:13:21;73.78;;;16.17;;
70008;SDS011;59542;37.950;-122.338;2023-05-23T10:15:54;56.40;;;15.85;;
70008;SDS011;59542;37.950;-122.338;2023-05-23T10:18:30;74.50;;;18.23;;
70008;SDS011;59542;37.950;-122.338;2023-05-23T10:21:05;74.13;;;16.83;;
70008;SDS011;59542;37.950;-122.338;2023-05-23T10:23:36;66.70;;;17.02;;
70008;SDS011;59542;37.950;-122.338;2023-05-23T10:26:03;64.40;;;16.95;;
70008;SDS011;59542;37.950;-122.338;2023-05-23T10:28:31;69.88;;;16.65;;
70008;SDS011;59542;37.950;-122.338;2023-05-23T10:30:58;68.00;;;16.38;;
70008;SDS011;59542;37.950;-122.338;2023-05-23T10:33:25;71.45;;;18.67;;
70008;SDS011;59542;37.950;-122.338;2023-05-23T10:36:29;66.28;;;16.50;;
70008;SDS011;59542;37.950;-122.338;2023-05-23T10:38:52;64.55;;;16.83;;
70008;SDS011;59542;37.950;-122.338;2023-05-23T10:41:35;63.72;;;16.50;;
70008;SDS011;59542;37.950;-122.338;2023-05-23T10:44:18;67.05;;;16.77;;
70008;SDS011;59542;37.950;-122.338;2023-05-23T10:49:41;69.05;;;18.58;;
70008;SDS011;59542;37.950;-122.338;2023-05-23T10:52:07;64.65;;;16.98;;
70008;SDS011;59542;37.950;-122.338;2023-05-23T10:54:35;59.50;;;15.75;;
70008;SDS011;59542;37.950;-122.338;2023-05-23T10:57:06;62.53;;;15.52;;
70008;SDS011;59542;37.950;-122.338;2023-05-23T10:59:36;71.05;;;16.05;;
70008;SDS011;59542;37.950;-122.338;2023-05-23T11:02:06;70.43;;;16.35;;
70008;SDS011;59542;37.950;-122.338;2023-05-23T11:04:40;60.78;;;15.75;;
70008;SDS011;59542;37.950;-122.338;2023-05-23T11:10:08;70.93;;;17.23;;
70008;SDS011;59542;37.950;-122.338;2023-05-23T11:12:39;68.40;;;17.40;;
70008;SDS011;59542;37.950;-122.338;2023-05-23T11:20:18;58.67;;;15.82;;
70008;SDS011;59542;37.950;-122.338;2023-05-23T11:22:53;62.28;;;16.83;;
70008;SDS011;59542;37.950;-122.338;2023-05-23T11:25:38;56.28;;;16.58;;
70008;SDS011;59542;37.950;-122.338;2023-05-23T11:28:09;62.47;;;16.63;;
70008;SDS011;59542;37.950;-122.338;2023-05-23T11:30:36;61.75;;;15.07;;
70008;SDS011;59542;37.950;-122.338;2023-05-23T11:33:06;71.50;;;17.60;;
70008;SDS011;59542;37.950;-122.338;2023-05-23T11:35:36;63.20;;;16.42;;
70008;SDS011;59542;37.950;-122.338;2023-05-23T11:38:03;71.47;;;16.45;;
70008;SDS011;59542;37.950;-122.338;2023-05-23T11:40:31;63.33;;;14.95;;
70008;SDS011;59542;37.950;-122.338;2023-05-23T11:43:05;66.45;;;16.17;;
70008;SDS011;59542;37.950;-122.338;2023-05-23T11:45:33;72.68;;;16.70;;
70008;SDS011;59542;37.950;-122.338;2023-05-23T11:48:04;69.30;;;16.83;;
70008;SDS011;59542;37.950;-122.338;2023-05-23T11:50:31;70.50;;;16.25;;
70008;SDS011;59542;37.950;-122.338;2023-05-23T11:52:58;67.45;;;16.50;;
70008;SDS011;59542;37.950;-122.338;2023-05-23T11:55:24;63.17;;;16.23;;
70008;SDS011;59542;37.950;-122.338;2023-05-23T11:57:51;69.78;;;18.25;;
70008;SDS011;59542;37.950;-122.338;2023-05-23T12:00:20;70.78;;;16.67;;
70008;SDS011;59542;37.950;-122.338;2023-05-23T12:02:47;64.93;;;17.20;;
70008;SDS011;59542;37.950;-122.338;2023-05-23T12:05:13;60.72;;;16.42;;
70008;SDS011;59542;37.950;-122.338;2023-05-23T12:07:49;79.35;;;18.40;;
70008;SDS011;59542;37.950;-122.338;2023-05-23T12:10:16;73.72;;;16.75;;
70008;SDS011;59542;37.950;-122.338;2023-05-23T12:12:44;62.42;;;15.52;;
70008;SDS011;59542;37.950;-122.338;2023-05-23T12:15:11;62.78;;;16.90;;
70008;SDS011;59542;37.950;-122.338;2023-05-23T12:17:38;60.55;;;15.40;;
70008;SDS011;59542;37.950;-122.338;2023-05-23T12:20:09;76.07;;;16.38;;
70008;SDS011;59542;37.950;-122.338;2023-05-23T12:22:37;68.05;;;16.45;;
70008;SDS011;59542;37.950;-122.338;2023-05-23T12:25:06;66.78;;;17.15;;
70008;SDS011;59542;37.950;-122.338;2023-05-23T12:27:33;54.28;;;15.88;;
70008;SDS011;59542;37.950;-122.338;2023-05-23T12:30:07;64.00;;;16.65;;
70008;SDS011;59542;37.950;-122.338;2023-05-23T12:32:42;76.97;;;18.85;;
70008;SDS011;59542;37.950;-122.338;2023-05-23T12:35:10;63.58;;;16.45;;
70008;SDS011;59542;37.950;-122.338;2023-05-23T12:37:38;69.90;;;17.63;;
70008;SDS011;59542;37.950;-122.338;2023-05-23T12:40:11;76.22;;;17.98;;
70008;SDS011;59542;37.950;-122.338;2023-05-23T12:42:54;63.33;;;16.02;;
70008;SDS011;59542;37.950;-122.338;2023-05-23T12:45:21;72.03;;;18.00;;
70008;SDS011;59542;37.950;-122.338;2023-05-23T12:47:49;73.38;;;17.38;;
70008;SDS011;59542;37.950;-122.338;2023-05-23T12:50:15;68.38;;;16.48;;
70008;SDS011;59542;37.950;-122.338;2023-05-23T12:52:42;58.97;;;15.13;;
70008;SDS011;59542;37.950;-122.338;2023-05-23T12:55:08;56.72;;;14.77;;
70008;SDS011;59542;37.950;-122.338;2023-05-23T12:57:35;60.63;;;15.18;;
70008;SDS011;59542;37.950;-122.338;2023-05-23T13:00:02;58.90;;;15.30;;
70008;SDS011;59542;37.950;-122.338;2023-05-23T13:02:29;52.92;;;15.25;;
70008;SDS011;59542;37.950;-122.338;2023-05-23T13:04:55;63.00;;;17.02;;
70008;SDS011;59542;37.950;-122.338;2023-05-23T13:07:22;62.38;;;15.48;;
70008;SDS011;59542;37.950;-122.338;2023-05-23T13:09:48;63.25;;;16.67;;
70008;SDS011;59542;37.950;-122.338;2023-05-23T13:12:14;51.85;;;15.32;;
70008;SDS011;59542;37.950;-122.338;2023-05-23T13:14:40;63.63;;;16.63;;
70008;SDS011;59542;37.950;-122.338;2023-05-23T13:17:07;68.07;;;16.80;;
70008;SDS011;59542;37.950;-122.338;2023-05-23T13:19:33;63.17;;;15.88;;
70008;SDS011;59542;37.950;-122.338;2023-05-23T13:22:00;60.75;;;16.10;;
70008;SDS011;59542;37.950;-122.338;2023-05-23T13:24:28;69.03;;;14.88;;
70008;SDS011;59542;37.950;-122.338;2023-05-23T13:26:55;51.25;;;14.48;;
70008;SDS011;59542;37.950;-122.338;2023-05-23T13:29:21;61.90;;;15.55;;
70008;SDS011;59542;37.950;-122.338;2023-05-23T13:31:47;68.40;;;16.00;;
70008;SDS011;59542;37.950;-122.338;2023-05-23T13:34:14;54.88;;;15.07;;
70008;SDS011;59542;37.950;-122.338;2023-05-23T13:36:40;63.75;;;14.63;;
70008;SDS011;59542;37.950;-122.338;2023-05-23T13:39:06;57.65;;;14.90;;
70008;SDS011;59542;37.950;-122.338;2023-05-23T13:41:32;54.67;;;14.15;;
70008;SDS011;59542;37.950;-122.338;2023-05-23T13:43:58;63.33;;;16.02;;
70008;SDS011;59542;37.950;-122.338;2023-05-23T13:46:25;51.38;;;15.00;;
70008;SDS011;59542;37.950;-122.338;2023-05-23T13:48:51;64.07;;;14.75;;
70008;SDS011;59542;37.950;-122.338;2023-05-23T13:51:18;67.07;;;15.00;;
70008;SDS011;59542;37.950;-122.338;2023-05-23T13:53:44;63.90;;;15.00;;
70008;SDS011;59542;37.950;-122.338;2023-05-23T13:56:10;60.75;;;15.30;;
70008;SDS011;59542;37.950;-122.338;2023-05-23T13:58:36;58.72;;;14.63;;
70008;SDS011;59542;37.950;-122.338;2023-05-23T14:01:03;60.97;;;14.30;;
70008;SDS011;59542;37.950;-122.338;2023-05-23T14:03:29;56.35;;;14.20;;
70008;SDS011;59542;37.950;-122.338;2023-05-23T14:05:55;63.28;;;15.63;;
70008;SDS011;59542;37.950;-122.338;2023-05-23T14:08:22;55.40;;;13.75;;
70008;SDS011;59542;37.950;-122.338;2023-05-23T14:10:48;57.60;;;15.20;;
70008;SDS011;59542;37.950;-122.338;2023-05-23T14:13:14;55.92;;;15.82;;
70008;SDS011;59542;37.950;-122.338;2023-05-23T14:15:40;54.60;;;14.82;;
70008;SDS011;59542;37.950;-122.338;2023-05-23T14:18:06;57.70;;;14.15;;
70008;SDS011;59542;37.950;-122.338;2023-05-23T14:20:33;59.30;;;14.70;;